Ashland, VA (23005)

8:50 AM EST on March 04, 2015 (GMT -0500)
Ashland | Change Station
CLOSE
Current Station
Personal Weather Station
Location: Ashland, VA
Elevation: 210 ft
Nearby Weather Stations

Elev 210 ft 37.75 °N, 77.48 °W | Updated 5 minutes ago

Overcast
Overcast
46.2 °F
Feels Like 46 °F
N
0.0
Wind Variable Wind from NNE
Gusts 0.0 mph

Today
High -- | Low -- °F
--% Chance of Precip.
Yesterday
High -- | Low -- °F
Precip. -- in
6:37 AM 6:06 PM
Waxing Gibbous, 99% visible
Pressure 29.93 in
Visibility 2.5 miles
Clouds Few 200 ft
Overcast 800 ft
Windchill 46 °F
Dew Point 45 °F
Humidity 96%
Rainfall 0.02 in
Snow Depth Not available.
UV 0.0 out of 12
Pollen 4.70 out of 12
Air Quality Not available.
Flu Activity Not available.
METAR KOFP 041254Z AUTO 00000KT 2 1/2SM BR FEW002 OVC008 08/08 A2993 RMK AO2 RAE16 SLP134 P0000 T00830078

More Conditions Fewer Conditions

Pressure 29.93 in
Visibility 2.5 miles
Clouds Few 200 ft
Overcast 800 ft
Windchill 46 °F
Dew Point 45 °F
Humidity 96%
Rainfall 0.02 in
Snow Depth Not available.
UV 0.0 out of 12
Pollen 4.70 out of 12
Air Quality Not available.
Flu Activity Not available.
METAR KOFP 041254Z AUTO 00000KT 2 1/2SM BR FEW002 OVC008 08/08 A2993 RMK AO2 RAE16 SLP134 P0000 T00830078

More Conditions Fewer Conditions

10-Day Weather Forecast

Almanac

Astronomy

Mar. 04, 2015 Rise Set
Actual Time
Civil Twilight
Nautical Twilight
Astronomical Twilight
Moon
Length of Visible Light
Length of Day
Tomorrow will be .
, % of the Moon is Illuminated

Today's Extremes

State Highs State Lows

Community

WunderPhotos

Upload Photos

1,802,453 photos uploaded!

WunderBlogs® & News

Nearby

Air Quality

  Air Quality AQ Index Pollutant
Not available.

Snow Depth

Station Depth Elevation

Earthquake Activity

City Distance Mag. Time & Date
Minimum magnitude displayed is 2.5.

Coastal Water Temperatures

Place Temperature

Nearby Weather Stations